sensor_id;sensor_type;location;lat;lon;timestamp;pressure;altitude;pressure_sealevel;temperature;humidity
39729;BME280;25402;42.004;23.088;2023-05-03T06:12:00;97724.13;;;14.99;35.89
39729;BME280;25402;42.004;23.088;2023-05-03T06:14:27;97728.09;;;15.49;34.24
39729;BME280;25402;42.004;23.088;2023-05-03T06:16:54;97738.09;;;14.30;38.03
39729;BME280;25402;42.004;23.088;2023-05-03T06:19:21;97743.69;;;14.22;38.25
39729;BME280;25402;42.004;23.088;2023-05-03T06:21:49;97747.00;;;14.11;38.44
39729;BME280;25402;42.004;23.088;2023-05-03T06:24:16;97745.31;;;14.10;38.66
39729;BME280;25402;42.004;23.088;2023-05-03T06:26:45;97755.41;;;14.16;38.56
39729;BME280;25402;42.004;23.088;2023-05-03T06:29:14;97762.81;;;14.42;38.27
39729;BME280;25402;42.004;23.088;2023-05-03T06:31:42;97768.91;;;14.50;38.08
39729;BME280;25402;42.004;23.088;2023-05-03T06:34:10;97755.94;;;14.46;38.01
39729;BME280;25402;42.004;23.088;2023-05-03T06:36:37;97757.00;;;14.04;38.26
39729;BME280;25402;42.004;23.088;2023-05-03T06:39:04;97757.22;;;13.61;39.05
39729;BME280;25402;42.004;23.088;2023-05-03T06:41:35;97755.88;;;13.23;38.98
39729;BME280;25402;42.004;23.088;2023-05-03T06:44:02;97771.41;;;13.01;39.06
39729;BME280;25402;42.004;23.088;2023-05-03T06:46:30;97763.25;;;13.01;39.43
39729;BME280;25402;42.004;23.088;2023-05-03T06:48:58;97754.72;;;13.04;39.67
39729;BME280;25402;42.004;23.088;2023-05-03T06:51:26;97758.06;;;13.06;39.70
39729;BME280;25402;42.004;23.088;2023-05-03T06:53:55;97762.38;;;13.22;39.72
39729;BME280;25402;42.004;23.088;2023-05-03T06:56:22;97757.63;;;12.81;40.05
39729;BME280;25402;42.004;23.088;2023-05-03T06:58:50;97751.44;;;12.87;40.12
39729;BME280;25402;42.004;23.088;2023-05-03T07:01:17;97750.31;;;12.60;39.79
39729;BME280;25402;42.004;23.088;2023-05-03T07:03:47;97761.69;;;12.92;39.59
39729;BME280;25402;42.004;23.088;2023-05-03T07:06:14;97763.22;;;13.50;39.21
39729;BME280;25402;42.004;23.088;2023-05-03T07:08:42;97759.38;;;13.72;38.26
39729;BME280;25402;42.004;23.088;2023-05-03T07:11:10;97751.13;;;13.94;38.31
39729;BME280;25402;42.004;23.088;2023-05-03T07:13:37;97763.72;;;14.08;37.19
39729;BME280;25402;42.004;23.088;2023-05-03T07:16:06;97759.84;;;13.82;37.18
39729;BME280;25402;42.004;23.088;2023-05-03T07:18:33;97769.97;;;14.02;37.26
39729;BME280;25402;42.004;23.088;2023-05-03T07:21:03;97784.56;;;14.35;36.90
39729;BME280;25402;42.004;23.088;2023-05-03T07:23:31;97783.47;;;14.23;36.94
39729;BME280;25402;42.004;23.088;2023-05-03T07:25:58;97770.59;;;14.51;36.68
39729;BME280;25402;42.004;23.088;2023-05-03T07:28:25;97781.72;;;14.56;36.12
39729;BME280;25402;42.004;23.088;2023-05-03T07:30:52;97785.28;;;14.70;36.14
39729;BME280;25402;42.004;23.088;2023-05-03T07:33:19;97783.28;;;15.05;35.44
39729;BME280;25402;42.004;23.088;2023-05-03T07:35:46;97788.91;;;15.50;34.38
39729;BME280;25402;42.004;23.088;2023-05-03T07:38:16;97794.09;;;15.91;34.62
39729;BME280;25402;42.004;23.088;2023-05-03T07:40:43;97792.84;;;16.38;33.16
39729;BME280;25402;42.004;23.088;2023-05-03T07:43:10;97790.47;;;16.61;33.63
39729;BME280;25402;42.004;23.088;2023-05-03T07:45:39;97800.34;;;16.94;33.01
39729;BME280;25402;42.004;23.088;2023-05-03T07:48:07;97804.59;;;17.21;32.96
39729;BME280;25402;42.004;23.088;2023-05-03T07:50:34;97804.66;;;17.40;32.19
39729;BME280;25402;42.004;23.088;2023-05-03T07:53:01;97808.78;;;17.49;31.21
39729;BME280;25402;42.004;23.088;2023-05-03T07:55:30;97790.41;;;17.56;31.29
39729;BME280;25402;42.004;23.088;2023-05-03T07:57:57;97799.44;;;17.81;31.94
39729;BME280;25402;42.004;23.088;2023-05-03T08:00:24;97801.06;;;17.89;31.08
39729;BME280;25402;42.004;23.088;2023-05-03T08:02:52;97796.78;;;18.11;30.59
39729;BME280;25402;42.004;23.088;2023-05-03T08:05:19;97790.34;;;18.24;30.23
39729;BME280;25402;42.004;23.088;2023-05-03T08:07:46;97776.91;;;18.34;29.96
39729;BME280;25402;42.004;23.088;2023-05-03T08:10:13;97755.31;;;18.44;29.13
39729;BME280;25402;42.004;23.088;2023-05-03T08:12:42;97764.06;;;18.83;29.29
39729;BME280;25402;42.004;23.088;2023-05-03T08:15:10;97750.03;;;19.02;29.20
39729;BME280;25402;42.004;23.088;2023-05-03T08:17:40;97752.22;;;19.24;28.98
39729;BME280;25402;42.004;23.088;2023-05-03T08:20:08;97748.91;;;19.33;28.52
39729;BME280;25402;42.004;23.088;2023-05-03T08:22:36;97753.19;;;19.41;28.50
39729;BME280;25402;42.004;23.088;2023-05-03T08:25:03;97751.53;;;19.40;28.72
39729;BME280;25402;42.004;23.088;2023-05-03T08:27:31;97740.69;;;19.33;28.94
39729;BME280;25402;42.004;23.088;2023-05-03T08:29:59;97735.53;;;19.25;28.92
39729;BME280;25402;42.004;23.088;2023-05-03T08:32:27;97740.41;;;19.23;29.13
39729;BME280;25402;42.004;23.088;2023-05-03T08:34:55;97727.78;;;19.22;29.45
39729;BME280;25402;42.004;23.088;2023-05-03T08:37:23;97742.81;;;19.20;29.34
39729;BME280;25402;42.004;23.088;2023-05-03T08:39:50;97734.47;;;19.15;29.12
39729;BME280;25402;42.004;23.088;2023-05-03T08:42:17;97753.19;;;19.18;29.06
39729;BME280;25402;42.004;23.088;2023-05-03T08:44:46;97747.44;;;19.07;29.63
39729;BME280;25402;42.004;23.088;2023-05-03T08:47:16;97747.16;;;18.97;29.78
39729;BME280;25402;42.004;23.088;2023-05-03T08:49:43;97745.13;;;18.93;29.85
39729;BME280;25402;42.004;23.088;2023-05-03T08:52:13;97747.84;;;18.93;29.88
39729;BME280;25402;42.004;23.088;2023-05-03T08:54:42;97743.19;;;18.82;29.95
39729;BME280;25402;42.004;23.088;2023-05-03T08:57:13;97745.94;;;18.82;29.52
39729;BME280;25402;42.004;23.088;2023-05-03T08:59:47;97732.84;;;18.84;29.98
39729;BME280;25402;42.004;23.088;2023-05-03T09:02:16;97721.41;;;18.87;29.88
39729;BME280;25402;42.004;23.088;2023-05-03T09:04:43;97710.91;;;18.84;29.98
39729;BME280;25402;42.004;23.088;2023-05-03T09:07:11;97716.25;;;18.79;30.09
39729;BME280;25402;42.004;23.088;2023-05-03T09:09:40;97722.09;;;18.82;29.58
39729;BME280;25402;42.004;23.088;2023-05-03T09:12:07;97712.34;;;18.86;29.96
39729;BME280;25402;42.004;23.088;2023-05-03T09:14:41;97704.72;;;18.88;29.66
39729;BME280;25402;42.004;23.088;2023-05-03T09:17:17;97719.66;;;19.04;29.76
39729;BME280;25402;42.004;23.088;2023-05-03T09:19:49;97718.13;;;19.08;30.45
39729;BME280;25402;42.004;23.088;2023-05-03T09:22:17;97722.06;;;19.12;30.87
39729;BME280;25402;42.004;23.088;2023-05-03T09:24:50;97687.47;;;19.11;31.03
39729;BME280;25402;42.004;23.088;2023-05-03T09:27:19;97701.44;;;19.21;30.78
39729;BME280;25402;42.004;23.088;2023-05-03T09:29:48;97698.72;;;19.33;31.10
39729;BME280;25402;42.004;23.088;2023-05-03T09:32:17;97687.97;;;19.31;31.31
39729;BME280;25402;42.004;23.088;2023-05-03T09:34:45;97684.00;;;19.39;31.43
39729;BME280;25402;42.004;23.088;2023-05-03T09:37:12;97689.63;;;19.44;31.39
39729;BME280;25402;42.004;23.088;2023-05-03T09:39:41;97689.16;;;19.47;31.59
39729;BME280;25402;42.004;23.088;2023-05-03T09:42:13;97689.88;;;19.42;31.18
39729;BME280;25402;42.004;23.088;2023-05-03T09:44:44;97659.91;;;19.06;31.26
39729;BME280;25402;42.004;23.088;2023-05-03T09:47:13;97684.13;;;19.09;30.99
39729;BME280;25402;42.004;23.088;2023-05-03T09:49:43;97653.34;;;18.84;30.70
39729;BME280;25402;42.004;23.088;2023-05-03T09:52:10;97677.41;;;18.82;30.88
39729;BME280;25402;42.004;23.088;2023-05-03T09:54:37;97686.31;;;18.65;31.20
39729;BME280;25402;42.004;23.088;2023-05-03T09:57:06;97691.41;;;18.50;30.94
39729;BME280;25402;42.004;23.088;2023-05-03T09:59:36;97694.00;;;18.27;30.98
39729;BME280;25402;42.004;23.088;2023-05-03T10:02:05;97685.63;;;18.10;31.17
39729;BME280;25402;42.004;23.088;2023-05-03T10:04:38;97685.47;;;18.05;31.23
39729;BME280;25402;42.004;23.088;2023-05-03T10:07:11;97683.16;;;17.90;31.77
39729;BME280;25402;42.004;23.088;2023-05-03T10:09:42;97680.41;;;17.90;31.90
39729;BME280;25402;42.004;23.088;2023-05-03T10:12:11;97671.75;;;17.93;32.08
39729;BME280;25402;42.004;23.088;2023-05-03T10:14:42;97658.41;;;17.97;31.94
39729;BME280;25402;42.004;23.088;2023-05-03T10:17:15;97652.41;;;18.07;32.07
39729;BME280;25402;42.004;23.088;2023-05-03T10:19:48;97649.84;;;18.23;31.67
39729;BME280;25402;42.004;23.088;2023-05-03T10:22:18;97652.47;;;18.30;31.74
39729;BME280;25402;42.004;23.088;2023-05-03T10:25:07;97636.78;;;18.37;30.53
39729;BME280;25402;42.004;23.088;2023-05-03T10:27:48;97644.69;;;18.45;30.37
39729;BME280;25402;42.004;23.088;2023-05-03T10:30:31;97662.31;;;18.19;30.76
39729;BME280;25402;42.004;23.088;2023-05-03T10:33:28;97632.81;;;17.55;31.57
39729;BME280;25402;42.004;23.088;2023-05-03T10:35:57;97619.38;;;17.17;31.79
39729;BME280;25402;42.004;23.088;2023-05-03T10:38:27;97635.56;;;17.36;31.85
39729;BME280;25402;42.004;23.088;2023-05-03T10:40:57;97639.34;;;16.92;32.49
39729;BME280;25402;42.004;23.088;2023-05-03T10:43:51;97643.84;;;17.05;32.62
39729;BME280;25402;42.004;23.088;2023-05-03T10:46:32;97640.94;;;17.00;32.74
39729;BME280;25402;42.004;23.088;2023-05-03T10:49:19;97612.38;;;16.78;33.13
39729;BME280;25402;42.004;23.088;2023-05-03T10:51:47;97622.78;;;16.87;32.62
39729;BME280;25402;42.004;23.088;2023-05-03T10:54:15;97629.44;;;16.98;33.06
39729;BME280;25402;42.004;23.088;2023-05-03T10:56:54;97618.91;;;17.20;32.22
39729;BME280;25402;42.004;23.088;2023-05-03T10:59:22;97614.72;;;17.17;33.65
39729;BME280;25402;42.004;23.088;2023-05-03T11:01:51;97613.16;;;17.03;33.96
39729;BME280;25402;42.004;23.088;2023-05-03T11:04:39;97607.59;;;17.34;33.91
39729;BME280;25402;42.004;23.088;2023-05-03T11:07:07;97602.00;;;17.29;33.43
39729;BME280;25402;42.004;23.088;2023-05-03T11:09:36;97611.06;;;16.62;33.40
39729;BME280;25402;42.004;23.088;2023-05-03T11:12:04;97598.03;;;16.01;34.27
39729;BME280;25402;42.004;23.088;2023-05-03T11:14:31;97589.53;;;16.16;33.83
39729;BME280;25402;42.004;23.088;2023-05-03T11:16:58;97591.94;;;16.30;33.64
39729;BME280;25402;42.004;23.088;2023-05-03T11:19:27;97600.88;;;16.19;34.12
39729;BME280;25402;42.004;23.088;2023-05-03T11:21:54;97596.16;;;15.57;33.91
39729;BME280;25402;42.004;23.088;2023-05-03T11:24:21;97589.09;;;15.87;33.65
39729;BME280;25402;42.004;23.088;2023-05-03T11:26:49;97588.63;;;15.46;33.95
39729;BME280;25402;42.004;23.088;2023-05-03T11:29:16;97585.13;;;15.39;33.63
39729;BME280;25402;42.004;23.088;2023-05-03T11:31:43;97575.78;;;15.08;34.55
39729;BME280;25402;42.004;23.088;2023-05-03T11:34:11;97581.78;;;15.30;35.14
39729;BME280;25402;42.004;23.088;2023-05-03T11:36:39;97575.31;;;15.69;34.79
39729;BME280;25402;42.004;23.088;2023-05-03T11:39:06;97579.06;;;15.75;33.79
39729;BME280;25402;42.004;23.088;2023-05-03T11:41:34;97576.81;;;15.65;34.08
39729;BME280;25402;42.004;23.088;2023-05-03T11:44:03;97575.09;;;15.77;33.97
39729;BME280;25402;42.004;23.088;2023-05-03T11:46:33;97576.31;;;15.81;34.11
39729;BME280;25402;42.004;23.088;2023-05-03T11:49:01;97568.75;;;15.83;33.69
39729;BME280;25402;42.004;23.088;2023-05-03T11:51:29;97566.97;;;16.02;33.77
39729;BME280;25402;42.004;23.088;2023-05-03T11:53:57;97561.44;;;16.09;33.19
39729;BME280;25402;42.004;23.088;2023-05-03T11:56:24;97565.19;;;15.89;33.60
39729;BME280;25402;42.004;23.088;2023-05-03T11:58:53;97593.19;;;16.03;33.68
39729;BME280;25402;42.004;23.088;2023-05-03T12:01:24;97605.09;;;16.09;34.02
39729;BME280;25402;42.004;23.088;2023-05-03T12:03:57;97602.06;;;15.47;34.12
39729;BME280;25402;42.004;23.088;2023-05-03T12:06:25;97620.97;;;15.36;34.72
39729;BME280;25402;42.004;23.088;2023-05-03T12:08:54;97623.75;;;15.16;35.47
39729;BME280;25402;42.004;23.088;2023-05-03T12:11:22;97630.50;;;14.87;37.73
39729;BME280;25402;42.004;23.088;2023-05-03T12:13:55;97649.75;;;14.66;39.45
39729;BME280;25402;42.004;23.088;2023-05-03T12:16:25;97652.47;;;14.39;40.80
39729;BME280;25402;42.004;23.088;2023-05-03T12:18:54;97641.16;;;14.49;40.32
39729;BME280;25402;42.004;23.088;2023-05-03T12:21:24;97622.34;;;14.54;40.66
39729;BME280;25402;42.004;23.088;2023-05-03T12:23:52;97596.16;;;14.66;40.21
39729;BME280;25402;42.004;23.088;2023-05-03T12:26:19;97601.78;;;15.04;39.51
39729;BME280;25402;42.004;23.088;2023-05-03T12:28:47;97622.34;;;14.74;41.73
39729;BME280;25402;42.004;23.088;2023-05-03T12:31:14;97611.38;;;15.13;41.47
39729;BME280;25402;42.004;23.088;2023-05-03T12:33:43;97599.81;;;15.82;40.27
39729;BME280;25402;42.004;23.088;2023-05-03T12:36:10;97592.94;;;16.67;39.32
39729;BME280;25402;42.004;23.088;2023-05-03T12:38:37;97585.88;;;17.21;38.11
39729;BME280;25402;42.004;23.088;2023-05-03T12:41:04;97588.16;;;17.43;37.96
39729;BME280;25402;42.004;23.088;2023-05-03T12:43:31;97591.13;;;17.59;37.76
39729;BME280;25402;42.004;23.088;2023-05-03T12:45:58;97587.22;;;17.67;37.17
39729;BME280;25402;42.004;23.088;2023-05-03T12:48:28;97582.97;;;17.71;37.41
39729;BME280;25402;42.004;23.088;2023-05-03T12:50:56;97578.69;;;17.75;36.93
39729;BME280;25402;42.004;23.088;2023-05-03T12:53:24;97571.94;;;17.78;36.72
39729;BME280;25402;42.004;23.088;2023-05-03T12:55:51;97567.00;;;17.86;36.79
39729;BME280;25402;42.004;23.088;2023-05-03T12:58:19;97568.66;;;17.87;36.51
39729;BME280;25402;42.004;23.088;2023-05-03T13:00:47;97576.41;;;17.90;37.05
39729;BME280;25402;42.004;23.088;2023-05-03T13:09:37;97574.38;;;16.94;38.91
39729;BME280;25402;42.004;23.088;2023-05-03T13:12:05;97575.16;;;17.38;37.48
39729;BME280;25402;42.004;23.088;2023-05-03T13:14:32;97562.72;;;17.42;37.56
39729;BME280;25402;42.004;23.088;2023-05-03T13:16:59;97547.28;;;17.11;37.67
39729;BME280;25402;42.004;23.088;2023-05-03T13:19:27;97563.63;;;16.99;37.98
39729;BME280;25402;42.004;23.088;2023-05-03T13:21:54;97548.66;;;16.84;38.01
39729;BME280;25402;42.004;23.088;2023-05-03T13:24:21;97545.31;;;16.82;38.22
39729;BME280;25402;42.004;23.088;2023-05-03T13:26:49;97548.50;;;16.97;38.08
39729;BME280;25402;42.004;23.088;2023-05-03T13:29:16;97567.09;;;17.07;37.51
39729;BME280;25402;42.004;23.088;2023-05-03T13:31:43;97563.84;;;17.16;37.89
39729;BME280;25402;42.004;23.088;2023-05-03T13:34:10;97568.44;;;17.22;37.17
39729;BME280;25402;42.004;23.088;2023-05-03T13:36:37;97583.28;;;17.08;37.83
39729;BME280;25402;42.004;23.088;2023-05-03T13:39:04;97588.28;;;17.11;38.01
39729;BME280;25402;42.004;23.088;2023-05-03T13:41:34;97585.09;;;16.96;37.70
39729;BME280;25402;42.004;23.088;2023-05-03T13:44:04;97587.06;;;17.07;37.89
39729;BME280;25402;42.004;23.088;2023-05-03T13:46:33;97579.91;;;17.13;38.14
39729;BME280;25402;42.004;23.088;2023-05-03T13:49:03;97573.16;;;17.15;38.26
39729;BME280;25402;42.004;23.088;2023-05-03T13:51:31;97552.91;;;17.16;38.66
39729;BME280;25402;42.004;23.088;2023-05-03T13:53:59;97548.28;;;17.17;38.48
39729;BME280;25402;42.004;23.088;2023-05-03T13:56:27;97568.75;;;17.14;38.60
39729;BME280;25402;42.004;23.088;2023-05-03T13:58:54;97580.75;;;17.13;38.86
39729;BME280;25402;42.004;23.088;2023-05-03T14:01:22;97567.06;;;17.13;39.45
39729;BME280;25402;42.004;23.088;2023-05-03T14:03:50;97551.25;;;16.97;39.32
39729;BME280;25402;42.004;23.088;2023-05-03T14:06:17;97564.13;;;16.90;38.57
39729;BME280;25402;42.004;23.088;2023-05-03T14:08:44;97549.69;;;16.64;38.67
39729;BME280;25402;42.004;23.088;2023-05-03T14:11:12;97574.09;;;16.59;39.24
39729;BME280;25402;42.004;23.088;2023-05-03T14:13:41;97560.56;;;16.40;39.82
39729;BME280;25402;42.004;23.088;2023-05-03T14:16:14;97546.06;;;16.21;40.66
39729;BME280;25402;42.004;23.088;2023-05-03T14:18:43;97558.75;;;16.33;40.52
39729;BME280;25402;42.004;23.088;2023-05-03T14:21:09;97557.22;;;16.13;39.35
39729;BME280;25402;42.004;23.088;2023-05-03T14:23:38;97564.28;;;15.95;39.98
39729;BME280;25402;42.004;23.088;2023-05-03T14:26:05;97564.78;;;15.79;41.85
39729;BME280;25402;42.004;23.088;2023-05-03T14:28:32;97543.84;;;15.28;42.21
39729;BME280;25402;42.004;23.088;2023-05-03T14:30:58;97559.81;;;15.25;42.65
39729;BME280;25402;42.004;23.088;2023-05-03T14:33:26;97548.56;;;15.08;42.87
39729;BME280;25402;42.004;23.088;2023-05-03T14:35:54;97553.00;;;14.76;44.79
39729;BME280;25402;42.004;23.088;2023-05-03T14:38:21;97543.63;;;14.46;45.44
39729;BME280;25402;42.004;23.088;2023-05-03T14:40:49;97550.94;;;14.39;45.64
39729;BME280;25402;42.004;23.088;2023-05-03T14:43:17;97554.09;;;14.29;45.75
39729;BME280;25402;42.004;23.088;2023-05-03T14:45:44;97553.25;;;14.29;44.92
39729;BME280;25402;42.004;23.088;2023-05-03T14:48:12;97531.88;;;14.06;44.95
39729;BME280;25402;42.004;23.088;2023-05-03T14:50:39;97546.72;;;14.23;44.03
39729;BME280;25402;42.004;23.088;2023-05-03T14:53:08;97556.78;;;14.09;45.78
39729;BME280;25402;42.004;23.088;2023-05-03T14:55:35;97554.47;;;14.06;45.92
39729;BME280;25402;42.004;23.088;2023-05-03T14:58:01;97556.94;;;13.75;46.11
39729;BME280;25402;42.004;23.088;2023-05-03T15:00:28;97561.41;;;13.35;46.65
39729;BME280;25402;42.004;23.088;2023-05-03T15:02:55;97549.69;;;13.41;46.49
39729;BME280;25402;42.004;23.088;2023-05-03T15:05:22;97549.28;;;13.44;46.36
39729;BME280;25402;42.004;23.088;2023-05-03T15:07:49;97549.06;;;13.39;46.75
39729;BME280;25402;42.004;23.088;2023-05-03T15:10:17;97545.91;;;13.29;46.92
39729;BME280;25402;42.004;23.088;2023-05-03T15:12:44;97547.13;;;13.19;46.90
39729;BME280;25402;42.004;23.088;2023-05-03T15:15:11;97548.28;;;12.97;47.49
39729;BME280;25402;42.004;23.088;2023-05-03T15:17:40;97553.25;;;12.94;47.39
39729;BME280;25402;42.004;23.088;2023-05-03T15:20:08;97551.22;;;13.02;47.57
39729;BME280;25402;42.004;23.088;2023-05-03T15:22:38;97548.25;;;12.91;47.76
39729;BME280;25402;42.004;23.088;2023-05-03T15:25:05;97543.16;;;12.74;47.73
39729;BME280;25402;42.004;23.088;2023-05-03T15:27:33;97537.09;;;12.51;48.55
39729;BME280;25402;42.004;23.088;2023-05-03T15:30:00;97547.81;;;12.59;47.58
39729;BME280;25402;42.004;23.088;2023-05-03T15:32:28;97551.50;;;12.73;47.99
39729;BME280;25402;42.004;23.088;2023-05-03T15:34:55;97549.41;;;12.75;48.09
39729;BME280;25402;42.004;23.088;2023-05-03T15:37:26;97545.50;;;12.84;47.61
39729;BME280;25402;42.004;23.088;2023-05-03T15:40:00;97544.19;;;12.73;47.41
39729;BME280;25402;42.004;23.088;2023-05-03T15:42:27;97543.16;;;12.81;47.62
39729;BME280;25402;42.004;23.088;2023-05-03T15:44:56;97549.19;;;12.76;47.87
39729;BME280;25402;42.004;23.088;2023-05-03T15:47:23;97552.75;;;12.77;47.91
39729;BME280;25402;42.004;23.088;2023-05-03T15:49:50;97554.19;;;12.73;48.17
39729;BME280;25402;42.004;23.088;2023-05-03T15:52:17;97546.47;;;12.70;47.84
39729;BME280;25402;42.004;23.088;2023-05-03T15:54:44;97561.94;;;12.76;48.14
39729;BME280;25402;42.004;23.088;2023-05-03T15:57:11;97559.66;;;12.79;48.08
39729;BME280;25402;42.004;23.088;2023-05-03T15:59:38;97556.91;;;12.73;47.67
39729;BME280;25402;42.004;23.088;2023-05-03T16:02:06;97557.97;;;12.78;47.90
39729;BME280;25402;42.004;23.088;2023-05-03T16:04:33;97547.00;;;12.65;47.29
39729;BME280;25402;42.004;23.088;2023-05-03T16:07:02;97541.13;;;12.62;46.86
39729;BME280;25402;42.004;23.088;2023-05-03T16:09:29;97553.56;;;12.71;46.78
39729;BME280;25402;42.004;23.088;2023-05-03T16:11:56;97558.59;;;12.74;47.07
39729;BME280;25402;42.004;23.088;2023-05-03T16:14:23;97555.88;;;12.74;47.16
39729;BME280;25402;42.004;23.088;2023-05-03T16:16:50;97556.91;;;12.73;47.29
39729;BME280;25402;42.004;23.088;2023-05-03T16:19:19;97554.41;;;12.71;47.02
39729;BME280;25402;42.004;23.088;2023-05-03T16:21:46;97554.41;;;12.78;47.21
39729;BME280;25402;42.004;23.088;2023-05-03T16:24:13;97538.13;;;12.78;46.81
39729;BME280;25402;42.004;23.088;2023-05-03T16:26:40;97553.19;;;12.80;46.90
39729;BME280;25402;42.004;23.088;2023-05-03T16:29:06;97558.28;;;12.90;46.74
39729;BME280;25402;42.004;23.088;2023-05-03T16:31:34;97555.31;;;12.85;46.96
39729;BME280;25402;42.004;23.088;2023-05-03T16:34:01;97561.41;;;12.94;46.83
39729;BME280;25402;42.004;23.088;2023-05-03T16:36:30;97572.97;;;13.02;47.03
39729;BME280;25402;42.004;23.088;2023-05-03T16:38:58;97583.41;;;13.05;47.01
39729;BME280;25402;42.004;23.088;2023-05-03T16:41:24;97580.47;;;13.07;47.05
39729;BME280;25402;42.004;23.088;2023-05-03T16:43:51;97572.75;;;13.04;47.24
39729;BME280;25402;42.004;23.088;2023-05-03T16:46:18;97570.63;;;12.99;47.57
39729;BME280;25402;42.004;23.088;2023-05-03T16:48:45;97566.09;;;13.06;47.42
39729;BME280;25402;42.004;23.088;2023-05-03T16:51:12;97553.06;;;12.95;47.29
39729;BME280;25402;42.004;23.088;2023-05-03T16:53:40;97576.91;;;13.00;47.54
39729;BME280;25402;42.004;23.088;2023-05-03T16:56:07;97565.81;;;12.95;47.54
39729;BME280;25402;42.004;23.088;2023-05-03T16:58:34;97578.72;;;12.93;47.42
39729;BME280;25402;42.004;23.088;2023-05-03T17:01:01;97578.13;;;12.91;47.71
39729;BME280;25402;42.004;23.088;2023-05-03T17:03:28;97575.59;;;12.89;47.54
39729;BME280;25402;42.004;23.088;2023-05-03T17:05:55;97577.47;;;12.89;47.42
39729;BME280;25402;42.004;23.088;2023-05-03T17:08:22;97562.56;;;12.78;47.64
39729;BME280;25402;42.004;23.088;2023-05-03T17:10:50;97560.28;;;12.75;47.97
39729;BME280;25402;42.004;23.088;2023-05-03T17:13:18;97559.53;;;12.66;48.00
39729;BME280;25402;42.004;23.088;2023-05-03T17:15:45;97563.50;;;12.64;48.06
39729;BME280;25402;42.004;23.088;2023-05-03T17:18:12;97548.81;;;12.51;48.03
39729;BME280;25402;42.004;23.088;2023-05-03T17:20:39;97550.03;;;12.21;47.70
39729;BME280;25402;42.004;23.088;2023-05-03T17:23:06;97564.81;;;12.19;47.97
39729;BME280;25402;42.004;23.088;2023-05-03T17:25:34;97565.94;;;12.03;47.69
39729;BME280;25402;42.004;23.088;2023-05-03T17:28:02;97569.03;;;12.00;48.14
39729;BME280;25402;42.004;23.088;2023-05-03T17:30:29;97571.06;;;11.91;47.84
39729;BME280;25402;42.004;23.088;2023-05-03T17:32:56;97584.03;;;11.81;48.11
39729;BME280;25402;42.004;23.088;2023-05-03T17:35:23;97593.78;;;11.75;47.95
39729;BME280;25402;42.004;23.088;2023-05-03T17:37:50;97601.66;;;11.70;47.96
39729;BME280;25402;42.004;23.088;2023-05-03T17:40:17;97608.94;;;11.70;47.59
39729;BME280;25402;42.004;23.088;2023-05-03T17:42:44;97612.16;;;11.59;47.40
39729;BME280;25402;42.004;23.088;2023-05-03T17:45:13;97609.69;;;11.28;47.98
39729;BME280;25402;42.004;23.088;2023-05-03T17:47:40;97613.81;;;11.24;47.95
39729;BME280;25402;42.004;23.088;2023-05-03T17:50:08;97598.94;;;10.90;48.24
39729;BME280;25402;42.004;23.088;2023-05-03T17:52:35;97610.63;;;10.91;48.38
39729;BME280;25402;42.004;23.088;2023-05-03T17:55:02;97604.34;;;10.75;48.64
39729;BME280;25402;42.004;23.088;2023-05-03T17:57:29;97604.06;;;10.70;48.80
39729;BME280;25402;42.004;23.088;2023-05-03T17:59:56;97619.38;;;10.78;48.63
39729;BME280;25402;42.004;23.088;2023-05-03T18:02:24;97606.97;;;10.69;48.55
39729;BME280;25402;42.004;23.088;2023-05-03T18:04:51;97579.34;;;10.59;48.79
39729;BME280;25402;42.004;23.088;2023-05-03T18:07:20;97605.19;;;10.76;48.61
39729;BME280;25402;42.004;23.088;2023-05-03T18:09:47;97604.44;;;10.53;49.19
39729;BME280;25402;42.004;23.088;2023-05-03T18:12:16;97604.00;;;10.26;50.04
39729;BME280;25402;42.004;23.088;2023-05-03T18:14:42;97604.56;;;10.22;50.27
39729;BME280;25402;42.004;23.088;2023-05-03T18:17:09;97623.22;;;10.31;50.22
39729;BME280;25402;42.004;23.088;2023-05-03T18:19:42;97626.25;;;10.36;50.20
39729;BME280;25402;42.004;23.088;2023-05-03T18:22:09;97623.91;;;10.33;50.42
39729;BME280;25402;42.004;23.088;2023-05-03T18:24:36;97633.91;;;10.48;50.33
39729;BME280;25402;42.004;23.088;2023-05-03T18:27:03;97620.53;;;10.31;50.28
39729;BME280;25402;42.004;23.088;2023-05-03T18:29:30;97652.44;;;10.13;49.72
39729;BME280;25402;42.004;23.088;2023-05-03T18:31:57;97648.94;;;10.04;49.95
39729;BME280;25402;42.004;23.088;2023-05-03T18:34:24;97646.19;;;10.13;49.84
39729;BME280;25402;42.004;23.088;2023-05-03T18:36:53;97638.88;;;10.21;49.54
39729;BME280;25402;42.004;23.088;2023-05-03T18:39:19;97651.47;;;10.29;50.01
39729;BME280;25402;42.004;23.088;2023-05-03T18:41:47;97645.56;;;10.02;50.11
39729;BME280;25402;42.004;23.088;2023-05-03T18:44:13;97651.09;;;10.09;49.93
39729;BME280;25402;42.004;23.088;2023-05-03T18:46:41;97660.00;;;10.18;49.42
39729;BME280;25402;42.004;23.088;2023-05-03T18:49:08;97652.97;;;10.31;49.37
39729;BME280;25402;42.004;23.088;2023-05-03T18:51:36;97657.47;;;10.39;49.29
39729;BME280;25402;42.004;23.088;2023-05-03T18:54:04;97659.97;;;10.40;49.49
39729;BME280;25402;42.004;23.088;2023-05-03T18:56:31;97661.97;;;10.47;49.29
39729;BME280;25402;42.004;23.088;2023-05-03T18:58:58;97672.91;;;10.53;49.42
39729;BME280;25402;42.004;23.088;2023-05-03T19:01:25;97678.94;;;10.55;49.48
39729;BME280;25402;42.004;23.088;2023-05-03T19:03:52;97683.16;;;10.58;49.65
39729;BME280;25402;42.004;23.088;2023-05-03T19:06:19;97680.75;;;10.63;49.46
39729;BME280;25402;42.004;23.088;2023-05-03T19:08:46;97671.22;;;10.52;49.62
39729;BME280;25402;42.004;23.088;2023-05-03T19:11:15;97677.44;;;10.38;49.45
39729;BME280;25402;42.004;23.088;2023-05-03T19:13:43;97668.28;;;10.39;49.32